sensor_id;sensor_type;location;lat;lon;timestamp;P1;P2;P0
61879;PMS7003;47817;52.798;27.544;2022-10-31T00:04:31;0.2;0;0
61879;PMS7003;47817;52.798;27.544;2022-10-31T00:09:03;0.5;0;0
61879;PMS7003;47817;52.798;27.544;2022-10-31T00:13:49;0.4;0;0
61879;PMS7003;47817;52.798;27.544;2022-10-31T00:19:09;0.2;0;0
61879;PMS7003;47817;52.798;27.544;2022-10-31T00:24:31;0.2;0;0
61879;PMS7003;47817;52.798;27.544;2022-10-31T00:29:07;0.4;0;0
61879;PMS7003;47817;52.798;27.544;2022-10-31T00:34:17;0;0;0
61879;PMS7003;47817;52.798;27.544;2022-10-31T00:39:07;0.4;0;0
61879;PMS7003;47817;52.798;27.544;2022-10-31T00:44:19;0.2;0;0
61879;PMS7003;47817;52.798;27.544;2022-10-31T00:49:09;0;0;0
61879;PMS7003;47817;52.798;27.544;2022-10-31T00:54:17;0.2;0;0
61879;PMS7003;47817;52.798;27.544;2022-10-31T00:59:01;0.4;0;0
61879;PMS7003;47817;52.798;27.544;2022-10-31T01:04:05;0.3;0.3;0.3
61879;PMS7003;47817;52.798;27.544;2022-10-31T01:09:31;0.8;0;0
61879;PMS7003;47817;52.798;27.544;2022-10-31T01:14:31;0.4;0;0
61879;PMS7003;47817;52.798;27.544;2022-10-31T01:19:31;0;0;0
61879;PMS7003;47817;52.798;27.544;2022-10-31T01:24:17;0.2;0;0
61879;PMS7003;47817;52.798;27.544;2022-10-31T01:28:59;0.2;0;0
61879;PMS7003;47817;52.798;27.544;2022-10-31T01:34:14;0;0;0
61879;PMS7003;47817;52.798;27.544;2022-10-31T01:39:33;0.8;0;0
61879;PMS7003;47817;52.798;27.544;2022-10-31T01:43:50;0;0;0
61879;PMS7003;47817;52.798;27.544;2022-10-31T01:49:20;0;0;0
61879;PMS7003;47817;52.798;27.544;2022-10-31T01:54:02;0.2;0;0
61879;PMS7003;47817;52.798;27.544;2022-10-31T01:59:35;0.4;0;0
61879;PMS7003;47817;52.798;27.544;2022-10-31T02:04:01;0;0;0
61879;PMS7003;47817;52.798;27.544;2022-10-31T02:09:19;0;0;0
61879;PMS7003;47817;52.798;27.544;2022-10-31T02:14:21;0;0;0
61879;PMS7003;47817;52.798;27.544;2022-10-31T02:19:01;0;0;0
61879;PMS7003;47817;52.798;27.544;2022-10-31T02:24:40;0;0;0
61879;PMS7003;47817;52.798;27.544;2022-10-31T02:29:53;0;0;0
61879;PMS7003;47817;52.798;27.544;2022-10-31T02:34:34;0.8;0;0
61879;PMS7003;47817;52.798;27.544;2022-10-31T02:39:08;0.2;0;0
61879;PMS7003;47817;52.798;27.544;2022-10-31T02:44:05;0.2;0;0
61879;PMS7003;47817;52.798;27.544;2022-10-31T02:49:15;0.4;0;0
61879;PMS7003;47817;52.798;27.544;2022-10-31T02:54:33;1;0.6;0.6
61879;PMS7003;47817;52.798;27.544;2022-10-31T02:59:01;1.8;0.6;0.4
61879;PMS7003;47817;52.798;27.544;2022-10-31T03:04:29;1.6;0.2;0.2
61879;PMS7003;47817;52.798;27.544;2022-10-31T03:08:50;0;0;0
61879;PMS7003;47817;52.798;27.544;2022-10-31T03:14:37;0.6;0.2;0.2
61879;PMS7003;47817;52.798;27.544;2022-10-31T03:19:14;0.8;0.4;0.4
61879;PMS7003;47817;52.798;27.544;2022-10-31T03:24:19;0.2;0.2;0.2
61879;PMS7003;47817;52.798;27.544;2022-10-31T03:29:22;0.8;0;0
61879;PMS7003;47817;52.798;27.544;2022-10-31T03:34:21;1;1;0.8
61879;PMS7003;47817;52.798;27.544;2022-10-31T03:39:35;1.6;1;0.8
61879;PMS7003;47817;52.798;27.544;2022-10-31T03:44:35;3;0.6;0.6
61879;PMS7003;47817;52.798;27.544;2022-10-31T03:49:35;0.2;0;0
61879;PMS7003;47817;52.798;27.544;2022-10-31T03:54:36;1.5;0.5;0.5
61879;PMS7003;47817;52.798;27.544;2022-10-31T03:59:00;1.8;0.8;0.6
61879;PMS7003;47817;52.798;27.544;2022-10-31T04:04:13;6.4;4.4;3
61879;PMS7003;47817;52.798;27.544;2022-10-31T04:09:36;7.4;5;3.6
61879;PMS7003;47817;52.798;27.544;2022-10-31T04:14:09;4.8;3.3;2.5
61879;PMS7003;47817;52.798;27.544;2022-10-31T04:19:21;7.4;3.8;2.8
61879;PMS7003;47817;52.798;27.544;2022-10-31T04:23:49;7.8;4;3.4
61879;PMS7003;47817;52.798;27.544;2022-10-31T04:29:35;3.4;2;1.6
61879;PMS7003;47817;52.798;27.544;2022-10-31T04:33:49;0.4;0.2;0
61879;PMS7003;47817;52.798;27.544;2022-10-31T04:39:19;1;0.4;0.4
61879;PMS7003;47817;52.798;27.544;2022-10-31T04:44:23;1.6;1.2;0.8
61879;PMS7003;47817;52.798;27.544;2022-10-31T04:48:49;3;1;0.6
61879;PMS7003;47817;52.798;27.544;2022-10-31T04:54:35;1.2;1;0.6
61879;PMS7003;47817;52.798;27.544;2022-10-31T04:59:33;2.8;1;1
61879;PMS7003;47817;52.798;27.544;2022-10-31T05:04:35;1.4;1.4;0.6
61879;PMS7003;47817;52.798;27.544;2022-10-31T05:09:09;1;0.8;0.6
61879;PMS7003;47817;52.798;27.544;2022-10-31T05:14:01;2.2;1.8;1.4
61879;PMS7003;47817;52.798;27.544;2022-10-31T05:19:13;4;2.8;2.4
61879;PMS7003;47817;52.798;27.544;2022-10-31T05:24:35;5;4;3
61879;PMS7003;47817;52.798;27.544;2022-10-31T05:29:33;3.6;2.8;2.4
61879;PMS7003;47817;52.798;27.544;2022-10-31T05:33:51;3.8;2.8;1.8
61879;PMS7003;47817;52.798;27.544;2022-10-31T05:39:01;5.5;4;3
61879;PMS7003;47817;52.798;27.544;2022-10-31T05:44:35;2.4;1.6;1.6
61879;PMS7003;47817;52.798;27.544;2022-10-31T05:48:49;2.6;2;1.2
61879;PMS7003;47817;52.798;27.544;2022-10-31T05:54:21;2.4;1.4;1
61879;PMS7003;47817;52.798;27.544;2022-10-31T05:59:25;1.4;1;0.6
61879;PMS7003;47817;52.798;27.544;2022-10-31T06:03:49;1.6;0.8;0.6
61879;PMS7003;47817;52.798;27.544;2022-10-31T06:09:35;0.4;0.2;0.2
61879;PMS7003;47817;52.798;27.544;2022-10-31T06:14:23;2.4;1.4;1
61879;PMS7003;47817;52.798;27.544;2022-10-31T06:19:25;0.4;0.4;0.4
61879;PMS7003;47817;52.798;27.544;2022-10-31T06:24:09;1.5;0.3;0.3
61879;PMS7003;47817;52.798;27.544;2022-10-31T06:29:01;0.6;0.4;0.2
61879;PMS7003;47817;52.798;27.544;2022-10-31T06:34:13;1.6;0.8;0.6
61879;PMS7003;47817;52.798;27.544;2022-10-31T06:39:33;2;0.8;0.2
61879;PMS7003;47817;52.798;27.544;2022-10-31T06:43:57;3;2.2;1.6
61879;PMS7003;47817;52.798;27.544;2022-10-31T06:49:21;3.2;2;1.8
61879;PMS7003;47817;52.798;27.544;2022-10-31T06:53:49;2.8;2.4;1.8
61879;PMS7003;47817;52.798;27.544;2022-10-31T06:59:37;2.4;1.8;1.6
61879;PMS7003;47817;52.798;27.544;2022-10-31T07:04:13;2.5;2;1.5
61879;PMS7003;47817;52.798;27.544;2022-10-31T07:09:21;1.4;0.8;0.6
61879;PMS7003;47817;52.798;27.544;2022-10-31T07:14:25;0.6;0.6;0.4
61879;PMS7003;47817;52.798;27.544;2022-10-31T07:19:01;1.8;0.8;0.4
61879;PMS7003;47817;52.798;27.544;2022-10-31T07:24:37;0.6;0.6;0.4
61879;PMS7003;47817;52.798;27.544;2022-10-31T07:29:37;2;1.8;1.4
61879;PMS7003;47817;52.798;27.544;2022-10-31T07:34:37;2.4;1.4;1
61879;PMS7003;47817;52.798;27.544;2022-10-31T07:39:09;1.2;0.8;0.4
61879;PMS7003;47817;52.798;27.544;2022-10-31T07:43:49;0.6;0.6;0.4
61879;PMS7003;47817;52.798;27.544;2022-10-31T07:49:13;1.4;0.8;0.6
61879;PMS7003;47817;52.798;27.544;2022-10-31T07:54:35;1.2;0.8;0.6
61879;PMS7003;47817;52.798;27.544;2022-10-31T07:58:57;1.8;0.8;0.8
61879;PMS7003;47817;52.798;27.544;2022-10-31T08:04:23;1.8;0.8;0.8
61879;PMS7003;47817;52.798;27.544;2022-10-31T08:09:13;1.6;1.4;1.2
61879;PMS7003;47817;52.798;27.544;2022-10-31T08:14:37;2.2;0.8;0.8
61879;PMS7003;47817;52.798;27.544;2022-10-31T08:19:01;1;1;0.6
61879;PMS7003;47817;52.798;27.544;2022-10-31T08:24:09;3;1.2;1
61879;PMS7003;47817;52.798;27.544;2022-10-31T08:29:23;0.6;0.4;0.4
61879;PMS7003;47817;52.798;27.544;2022-10-31T08:34:01;1.2;0.6;0.6
61879;PMS7003;47817;52.798;27.544;2022-10-31T08:38:49;0.6;0.2;0
61879;PMS7003;47817;52.798;27.544;2022-10-31T08:44:25;2.6;2;1.8
61879;PMS7003;47817;52.798;27.544;2022-10-31T08:49:11;1;0.6;0.4
61879;PMS7003;47817;52.798;27.544;2022-10-31T08:54:35;5.2;3;2
61879;PMS7003;47817;52.798;27.544;2022-10-31T08:59:01;2.5;1;0.5
61879;PMS7003;47817;52.798;27.544;2022-10-31T09:04:11;4.4;2;1.6
61879;PMS7003;47817;52.798;27.544;2022-10-31T09:09:13;12.2;8.8;6
61879;PMS7003;47817;52.798;27.544;2022-10-31T09:14:37;3.3;2.8;2.5
61879;PMS7003;47817;52.798;27.544;2022-10-31T09:19:37;3.2;1.8;1.6
61879;PMS7003;47817;52.798;27.544;2022-10-31T09:24:01;2.6;2;1.6
61879;PMS7003;47817;52.798;27.544;2022-10-31T09:29:01;2.2;1.6;1.4
61879;PMS7003;47817;52.798;27.544;2022-10-31T09:34:25;0.6;0.6;0.4
61879;PMS7003;47817;52.798;27.544;2022-10-31T09:39:25;2.4;1.2;1.2
61879;PMS7003;47817;52.798;27.544;2022-10-31T09:44:12;2.2;1;1
61879;PMS7003;47817;52.798;27.544;2022-10-31T09:48:52;1;0.6;0.6
61879;PMS7003;47817;52.798;27.544;2022-10-31T09:54:02;5.2;3.8;3.2
61879;PMS7003;47817;52.798;27.544;2022-10-31T09:59:16;16.4;13.8;10.4
61879;PMS7003;47817;52.798;27.544;2022-10-31T10:03:50;8.3;7;5.5
61879;PMS7003;47817;52.798;27.544;2022-10-31T10:09:37;16.2;14.2;11.8
61879;PMS7003;47817;52.798;27.544;2022-10-31T10:14:29;15;13.2;10.6
61879;PMS7003;47817;52.798;27.544;2022-10-31T10:19:04;7.6;5;4.6
61879;PMS7003;47817;52.798;27.544;2022-10-31T10:24:17;14.4;12.4;9
61879;PMS7003;47817;52.798;27.544;2022-10-31T10:29:17;9;7;6.2
61879;PMS7003;47817;52.798;27.544;2022-10-31T10:34:38;4.3;2.8;2.5
61879;PMS7003;47817;52.798;27.544;2022-10-31T10:39:11;4;2.6;2.4
61879;PMS7003;47817;52.798;27.544;2022-10-31T10:44:01;2;1.4;1.4
61879;PMS7003;47817;52.798;27.544;2022-10-31T10:49:26;1.4;0.8;0.6
61879;PMS7003;47817;52.798;27.544;2022-10-31T10:54:59;0.4;0.2;0.2
61879;PMS7003;47817;52.798;27.544;2022-10-31T10:59:09;2;1.2;1
61879;PMS7003;47817;52.798;27.544;2022-10-31T11:03:49;12.2;8.2;6.2
61879;PMS7003;47817;52.798;27.544;2022-10-31T11:08:57;7;5;4.6
61879;PMS7003;47817;52.798;27.544;2022-10-31T11:14:15;1.4;0.8;0.6
61879;PMS7003;47817;52.798;27.544;2022-10-31T11:19:13;2.5;1.3;1.3
61879;PMS7003;47817;52.798;27.544;2022-10-31T11:24:37;4.6;4;3.2
61879;PMS7003;47817;52.798;27.544;2022-10-31T11:29:25;3;1.8;1.6
61879;PMS7003;47817;52.798;27.544;2022-10-31T11:33:49;3;2.8;2.2
61879;PMS7003;47817;52.798;27.544;2022-10-31T11:39:02;5.8;4.6;3.6
61879;PMS7003;47817;52.798;27.544;2022-10-31T11:44:37;0.2;0.2;0.2
61879;PMS7003;47817;52.798;27.544;2022-10-31T11:49:36;1.2;0.6;0.4
61879;PMS7003;47817;52.798;27.544;2022-10-31T11:53:50;1.4;0.8;0.6
61879;PMS7003;47817;52.798;27.544;2022-10-31T11:59:17;1.6;1.6;1.2
61879;PMS7003;47817;52.798;27.544;2022-10-31T12:04:29;56.6;42.8;28
61879;PMS7003;47817;52.798;27.544;2022-10-31T12:09:26;62.5;46.8;30.3
61879;PMS7003;47817;52.798;27.544;2022-10-31T12:14:14;24.4;18.8;13.2
61879;PMS7003;47817;52.798;27.544;2022-10-31T12:18:52;19.4;15.6;10.6
61879;PMS7003;47817;52.798;27.544;2022-10-31T12:24:06;34.6;25.6;17.2
61879;PMS7003;47817;52.798;27.544;2022-10-31T12:29:29;12.2;10;7.4
61879;PMS7003;47817;52.798;27.544;2022-10-31T12:33:52;8.2;6.2;4.4
61879;PMS7003;47817;52.798;27.544;2022-10-31T12:39:37;5;3.3;2.5
61879;PMS7003;47817;52.798;27.544;2022-10-31T12:43:51;3.4;2.4;1.8
61879;PMS7003;47817;52.798;27.544;2022-10-31T12:49:27;7.2;4.6;3.2
61879;PMS7003;47817;52.798;27.544;2022-10-31T12:54:17;4.4;3.2;2.2
61879;PMS7003;47817;52.798;27.544;2022-10-31T12:59:22;10.4;6.8;4.6
61879;PMS7003;47817;52.798;27.544;2022-10-31T13:04:40;26.4;21;12.4
61879;PMS7003;47817;52.798;27.544;2022-10-31T13:09:36;12.4;10.4;6.8
61879;PMS7003;47817;52.798;27.544;2022-10-31T13:14:02;9;6.2;4.4
61879;PMS7003;47817;52.798;27.544;2022-10-31T13:19:25;4.4;3.6;2.4
61879;PMS7003;47817;52.798;27.544;2022-10-31T13:24:36;8.5;5.8;3.8
61879;PMS7003;47817;52.798;27.544;2022-10-31T13:29:11;6.6;4;2.8
61879;PMS7003;47817;52.798;27.544;2022-10-31T13:34:38;6.8;3.8;2.6
61879;PMS7003;47817;52.798;27.544;2022-10-31T13:38:57;4.6;3.4;2
61879;PMS7003;47817;52.798;27.544;2022-10-31T13:44:37;8.2;6.4;4.2
61879;PMS7003;47817;52.798;27.544;2022-10-31T13:48:49;3.6;3;2.4
61879;PMS7003;47817;52.798;27.544;2022-10-31T13:54:36;8.8;4.8;3.8
61879;PMS7003;47817;52.798;27.544;2022-10-31T13:58:58;13.8;12.6;8.6
61879;PMS7003;47817;52.798;27.544;2022-10-31T14:04:02;28;21.5;15
61879;PMS7003;47817;52.798;27.544;2022-10-31T14:09:01;29;22.2;14.4
61879;PMS7003;47817;52.798;27.544;2022-10-31T14:14:13;31;24.8;17.4
61879;PMS7003;47817;52.798;27.544;2022-10-31T14:19:35;34.6;28.6;19.2
61879;PMS7003;47817;52.798;27.544;2022-10-31T14:24:36;31;27;19
61879;PMS7003;47817;52.798;27.544;2022-10-31T14:29:02;44.6;31.8;20.6
61879;PMS7003;47817;52.798;27.544;2022-10-31T14:34:24;65;46.2;28.2
61879;PMS7003;47817;52.798;27.544;2022-10-31T14:39:24;77;57.2;36.2
61879;PMS7003;47817;52.798;27.544;2022-10-31T14:44:18;44;35;23.6
61879;PMS7003;47817;52.798;27.544;2022-10-31T14:49:39;46.8;38.6;25.6
61879;PMS7003;47817;52.798;27.544;2022-10-31T14:54:01;54.8;40.6;27.4
61879;PMS7003;47817;52.798;27.544;2022-10-31T14:59:38;31.4;25;16.6
61879;PMS7003;47817;52.798;27.544;2022-10-31T15:04:15;19.4;14.2;9.2
61879;PMS7003;47817;52.798;27.544;2022-10-31T15:09:35;20;16.4;10.8
61879;PMS7003;47817;52.798;27.544;2022-10-31T15:14:17;20.2;14.6;10.2
61879;PMS7003;47817;52.798;27.544;2022-10-31T15:18:51;13.2;10.4;7.4
61879;PMS7003;47817;52.798;27.544;2022-10-31T15:24:01;14.5;10.5;7
61879;PMS7003;47817;52.798;27.544;2022-10-31T15:29:24;19.8;13.2;8.8
61879;PMS7003;47817;52.798;27.544;2022-10-31T15:34:37;34.6;28.4;18.2
61879;PMS7003;47817;52.798;27.544;2022-10-31T15:39:37;16.4;13;8.6
61879;PMS7003;47817;52.798;27.544;2022-10-31T15:43:49;15;11.8;8.4
61879;PMS7003;47817;52.798;27.544;2022-10-31T15:49:14;24.4;17.6;11
61879;PMS7003;47817;52.798;27.544;2022-10-31T15:54:21;25.2;18.4;11.4
61879;PMS7003;47817;52.798;27.544;2022-10-31T15:59:11;25.6;20.6;11.8
61879;PMS7003;47817;52.798;27.544;2022-10-31T16:04:33;25.2;18.2;12.8
61879;PMS7003;47817;52.798;27.544;2022-10-31T16:08:59;22.5;20.5;14.8
61879;PMS7003;47817;52.798;27.544;2022-10-31T16:14:35;22.4;17.6;12.8
61879;PMS7003;47817;52.798;27.544;2022-10-31T16:19:15;24.4;19.8;14.2
61879;PMS7003;47817;52.798;27.544;2022-10-31T16:24:34;28.4;23.4;17
61879;PMS7003;47817;52.798;27.544;2022-10-31T16:29:22;24;19;13.3
61879;PMS7003;47817;52.798;27.544;2022-10-31T16:33:49;15;12.6;8.8
61879;PMS7003;47817;52.798;27.544;2022-10-31T16:39:11;15.4;10.4;8.4
61879;PMS7003;47817;52.798;27.544;2022-10-31T16:44:18;15.2;12;9
61879;PMS7003;47817;52.798;27.544;2022-10-31T16:49:35;19.4;14.4;9.6
61879;PMS7003;47817;52.798;27.544;2022-10-31T16:54:35;17.8;13.4;9.6
61879;PMS7003;47817;52.798;27.544;2022-10-31T16:58:59;13.6;11;7.6
61879;PMS7003;47817;52.798;27.544;2022-10-31T17:04:23;10.2;8.4;6.8
61879;PMS7003;47817;52.798;27.544;2022-10-31T17:09:23;11.8;9;6.8
61879;PMS7003;47817;52.798;27.544;2022-10-31T17:14:21;9;7;5.5
61879;PMS7003;47817;52.798;27.544;2022-10-31T17:19:23;9.6;7.2;5.4
61879;PMS7003;47817;52.798;27.544;2022-10-31T17:23:49;6.2;4.4;3.4
61879;PMS7003;47817;52.798;27.544;2022-10-31T17:29:33;8.6;5.8;4.4
61879;PMS7003;47817;52.798;27.544;2022-10-31T17:34:09;5;4.4;3.4
61879;PMS7003;47817;52.798;27.544;2022-10-31T17:39:23;8.4;4.4;3.4
61879;PMS7003;47817;52.798;27.544;2022-10-31T17:44:09;6.8;5.4;4.6
61879;PMS7003;47817;52.798;27.544;2022-10-31T17:48:59;6.8;5.4;4.4
61879;PMS7003;47817;52.798;27.544;2022-10-31T17:54:11;8.6;7.2;5.8
61879;PMS7003;47817;52.798;27.544;2022-10-31T17:59:19;8;6;5.2
61879;PMS7003;47817;52.798;27.544;2022-10-31T18:03:49;39.8;31.5;20.5
61879;PMS7003;47817;52.798;27.544;2022-10-31T18:09:33;48.4;35;22.6
61879;PMS7003;47817;52.798;27.544;2022-10-31T18:13:53;43.4;32.8;21.8
61879;PMS7003;47817;52.798;27.544;2022-10-31T18:19:35;15.2;10.8;7.6
61879;PMS7003;47817;52.798;27.544;2022-10-31T18:24:35;12.3;7;5.5
61879;PMS7003;47817;52.798;27.544;2022-10-31T18:29:19;12.2;9.8;8.6
61879;PMS7003;47817;52.798;27.544;2022-10-31T18:34:23;14.2;10;7.6
61879;PMS7003;47817;52.798;27.544;2022-10-31T18:38:59;12.5;10.8;7.3
61879;PMS7003;47817;52.798;27.544;2022-10-31T18:44:35;8.2;7.6;5.8
61879;PMS7003;47817;52.798;27.544;2022-10-31T18:48:49;10;6.6;5.4
61879;PMS7003;47817;52.798;27.544;2022-10-31T18:54:21;11.2;8.6;6.6
61879;PMS7003;47817;52.798;27.544;2022-10-31T18:59:35;8.6;5.8;5
61879;PMS7003;47817;52.798;27.544;2022-10-31T19:04:23;11.8;9.4;7.2
61879;PMS7003;47817;52.798;27.544;2022-10-31T19:08:49;9.5;7.5;5.8
61879;PMS7003;47817;52.798;27.544;2022-10-31T19:14:20;9;6.2;5
61879;PMS7003;47817;52.798;27.544;2022-10-31T19:19:09;8.2;6.6;4.6
61879;PMS7003;47817;52.798;27.544;2022-10-31T19:24:35;7.8;4.6;3.8
61879;PMS7003;47817;52.798;27.544;2022-10-31T19:29:11;11.4;9.2;6
61879;PMS7003;47817;52.798;27.544;2022-10-31T19:34:33;7.2;5.8;4.2
61879;PMS7003;47817;52.798;27.544;2022-10-31T19:39:11;10;7;5.8
61879;PMS7003;47817;52.798;27.544;2022-10-31T19:44:21;6.6;5.8;4.2
61879;PMS7003;47817;52.798;27.544;2022-10-31T19:49:21;12;9.5;7
61879;PMS7003;47817;52.798;27.544;2022-10-31T19:54:07;11.4;8.6;6
61879;PMS7003;47817;52.798;27.544;2022-10-31T19:59:35;58.6;50.2;30.8
61879;PMS7003;47817;52.798;27.544;2022-10-31T20:04:07;225.6;182.8;104.2
61879;PMS7003;47817;52.798;27.544;2022-10-31T20:09:21;76;57.6;35.8
61879;PMS7003;47817;52.798;27.544;2022-10-31T20:13:49;47.4;36.2;23
61879;PMS7003;47817;52.798;27.544;2022-10-31T20:19:09;17.4;13.2;8.6
61879;PMS7003;47817;52.798;27.544;2022-10-31T20:24:11;9.8;7;5
61879;PMS7003;47817;52.798;27.544;2022-10-31T20:29:19;6.8;5.8;4.4
61879;PMS7003;47817;52.798;27.544;2022-10-31T20:34:09;7.4;5.6;4.6
61879;PMS7003;47817;52.798;27.544;2022-10-31T20:39:33;4.3;4;3
61879;PMS7003;47817;52.798;27.544;2022-10-31T20:43:59;13.4;10.6;8.6
61879;PMS7003;47817;52.798;27.544;2022-10-31T20:49:33;12.2;10;6.4
61879;PMS7003;47817;52.798;27.544;2022-10-31T20:54:23;9.4;8.4;5.4
61879;PMS7003;47817;52.798;27.544;2022-10-31T20:59:21;11;9;6.4
61879;PMS7003;47817;52.798;27.544;2022-10-31T21:04:21;11.4;9.4;6.6
61879;PMS7003;47817;52.798;27.544;2022-10-31T21:09:09;12.2;7.4;6
61879;PMS7003;47817;52.798;27.544;2022-10-31T21:14:35;10;6.6;4.8
61879;PMS7003;47817;52.798;27.544;2022-10-31T21:18:49;12.4;10;6.8
61879;PMS7003;47817;52.798;27.544;2022-10-31T21:24:23;15;11.6;7.6
61879;PMS7003;47817;52.798;27.544;2022-10-31T21:28:59;14.4;10.8;8
61879;PMS7003;47817;52.798;27.544;2022-10-31T21:33:59;17.5;11.8;8.5
61879;PMS7003;47817;52.798;27.544;2022-10-31T21:38:49;14.8;11;7.2
61879;PMS7003;47817;52.798;27.544;2022-10-31T21:44:21;24;20.8;14.4
61879;PMS7003;47817;52.798;27.544;2022-10-31T21:49:09;16.8;11.6;8.6
61879;PMS7003;47817;52.798;27.544;2022-10-31T21:54:35;16.2;10.6;8.6
61879;PMS7003;47817;52.798;27.544;2022-10-31T21:58:55;9.6;8.6;6.8
61879;PMS7003;47817;52.798;27.544;2022-10-31T22:03:51;15;10.5;8.5
61879;PMS7003;47817;52.798;27.544;2022-10-31T22:09:17;13.2;9;7.4
61879;PMS7003;47817;52.798;27.544;2022-10-31T22:14:17;8.8;7.6;5.2
61879;PMS7003;47817;52.798;27.544;2022-10-31T22:19:17;10.8;8.8;6.8
61879;PMS7003;47817;52.798;27.544;2022-10-31T22:24:05;9.8;7.8;6.4
61879;PMS7003;47817;52.798;27.544;2022-10-31T22:29:29;10;8;7.2
61879;PMS7003;47817;52.798;27.544;2022-10-31T22:33:49;9.6;7.8;5.8
61879;PMS7003;47817;52.798;27.544;2022-10-31T22:39:17;9;7.6;5.8
61879;PMS7003;47817;52.798;27.544;2022-10-31T22:43:56;10.3;6.8;5.8
61879;PMS7003;47817;52.798;27.544;2022-10-31T22:48:50;8.8;6;4.8
61879;PMS7003;47817;52.798;27.544;2022-10-31T22:54:08;7.4;6.2;5.2
61879;PMS7003;47817;52.798;27.544;2022-10-31T22:59:14;6.8;4;3.2
61879;PMS7003;47817;52.798;27.544;2022-10-31T23:04:05;4.2;3.6;1.8
61879;PMS7003;47817;52.798;27.544;2022-10-31T23:09:29;7.6;5;3.8
61879;PMS7003;47817;52.798;27.544;2022-10-31T23:14:09;6.2;5;4
61879;PMS7003;47817;52.798;27.544;2022-10-31T23:19:29;6.4;5;3.8
61879;PMS7003;47817;52.798;27.544;2022-10-31T23:24:05;7.2;3.8;2.8
61879;PMS7003;47817;52.798;27.544;2022-10-31T23:29:17;4.3;4;3.5
61879;PMS7003;47817;52.798;27.544;2022-10-31T23:34:09;4.6;4;2.8
61879;PMS7003;47817;52.798;27.544;2022-10-31T23:38:49;5.8;4.4;3.4
61879;PMS7003;47817;52.798;27.544;2022-10-31T23:44:29;4.8;3.8;2.2
61879;PMS7003;47817;52.798;27.544;2022-10-31T23:49:05;7.3;5;4
61879;PMS7003;47817;52.798;27.544;2022-10-31T23:54:17;8;5.6;4.2
61879;PMS7003;47817;52.798;27.544;2022-10-31T23:59:03;9.6;7.2;5.4
